sensor_id;sensor_type;location;lat;lon;timestamp;pressure;altitude;pressure_sealevel;temperature;humidity
20909;BME280;10614;53.198;6.570;2024-03-08T00:01:40;102245.75;;;1.63;100.00
20909;BME280;10614;53.198;6.570;2024-03-08T00:03:42;102244.00;;;1.62;100.00
20909;BME280;10614;53.198;6.570;2024-03-08T00:05:44;102242.22;;;1.61;100.00
20909;BME280;10614;53.198;6.570;2024-03-08T00:07:47;102237.94;;;1.62;100.00
20909;BME280;10614;53.198;6.570;2024-03-08T00:09:49;102236.19;;;1.61;100.00
20909;BME280;10614;53.198;6.570;2024-03-08T00:11:50;102225.69;;;1.55;100.00
20909;BME280;10614;53.198;6.570;2024-03-08T00:13:52;102236.16;;;1.59;100.00
20909;BME280;10614;53.198;6.570;2024-03-08T00:15:55;102200.31;;;1.40;100.00
20909;BME280;10614;53.198;6.570;2024-03-08T00:17:58;102236.13;;;1.58;100.00
20909;BME280;10614;53.198;6.570;2024-03-08T00:19:59;102227.38;;;1.53;100.00
20909;BME280;10614;53.198;6.570;2024-03-08T00:22:03;102230.03;;;1.56;100.00
20909;BME280;10614;53.198;6.570;2024-03-08T00:24:06;102200.22;;;1.35;100.00
20909;BME280;10614;53.198;6.570;2024-03-08T00:26:08;102225.69;;;1.55;100.00
20909;BME280;10614;53.198;6.570;2024-03-08T00:28:10;102230.84;;;1.53;100.00
20909;BME280;10614;53.198;6.570;2024-03-08T00:30:14;102227.38;;;1.53;100.00
20909;BME280;10614;53.198;6.570;2024-03-08T00:32:15;102229.06;;;1.52;100.00
20909;BME280;10614;53.198;6.570;2024-03-08T00:34:18;102223.84;;;1.49;100.00
20909;BME280;10614;53.198;6.570;2024-03-08T00:36:20;102228.13;;;1.47;100.00
20909;BME280;10614;53.198;6.570;2024-03-08T00:38:22;102201.91;;;1.33;100.00
20909;BME280;10614;53.198;6.570;2024-03-08T00:40:25;102225.53;;;1.47;100.00
20909;BME280;10614;53.198;6.570;2024-03-08T00:42:27;102203.56;;;1.30;100.00
20909;BME280;10614;53.198;6.570;2024-03-08T00:44:29;102172.94;;;1.12;100.00
20909;BME280;10614;53.198;6.570;2024-03-08T00:46:30;102209.66;;;1.32;100.00
20909;BME280;10614;53.198;6.570;2024-03-08T00:48:32;102207.88;;;1.29;100.00
20909;BME280;10614;53.198;6.570;2024-03-08T00:50:34;102223.69;;;1.41;100.00
20909;BME280;10614;53.198;6.570;2024-03-08T00:52:36;102219.25;;;1.36;100.00
20909;BME280;10614;53.198;6.570;2024-03-08T00:54:38;102180.81;;;1.15;100.00
20909;BME280;10614;53.198;6.570;2024-03-08T00:56:42;102220.09;;;1.35;100.00
20909;BME280;10614;53.198;6.570;2024-03-08T00:58:44;102196.44;;;1.19;100.00
20909;BME280;10614;53.198;6.570;2024-03-08T01:00:46;102199.19;;;1.27;100.00
20909;BME280;10614;53.198;6.570;2024-03-08T01:02:46;102212.22;;;1.30;100.00
20909;BME280;10614;53.198;6.570;2024-03-08T01:04:48;102212.19;;;1.29;100.00
20909;BME280;10614;53.198;6.570;2024-03-08T01:06:51;102208.72;;;1.26;100.00
20909;BME280;10614;53.198;6.570;2024-03-08T01:08:53;102200.00;;;1.24;100.00
20909;BME280;10614;53.198;6.570;2024-03-08T01:10:55;102208.63;;;1.23;100.00
20909;BME280;10614;53.198;6.570;2024-03-08T01:12:59;102199.06;;;1.21;100.00
20909;BME280;10614;53.198;6.570;2024-03-08T01:15:01;102179.81;;;1.08;100.00
20909;BME280;10614;53.198;6.570;2024-03-08T01:17:04;102198.97;;;1.16;100.00
20909;BME280;10614;53.198;6.570;2024-03-08T01:19:06;102192.91;;;1.16;100.00
20909;BME280;10614;53.198;6.570;2024-03-08T01:21:08;102182.41;;;1.10;100.00
20909;BME280;10614;53.198;6.570;2024-03-08T01:23:10;102186.72;;;1.09;100.00
20909;BME280;10614;53.198;6.570;2024-03-08T01:25:11;102181.50;;;1.08;100.00
20909;BME280;10614;53.198;6.570;2024-03-08T01:27:14;102178.88;;;1.06;100.00
20909;BME280;10614;53.198;6.570;2024-03-08T01:29:17;102171.06;;;1.04;100.00
20909;BME280;10614;53.198;6.570;2024-03-08T01:31:19;102166.69;;;1.02;100.00
20909;BME280;10614;53.198;6.570;2024-03-08T01:33:22;102170.16;;;1.01;100.00
20909;BME280;10614;53.198;6.570;2024-03-08T01:35:24;102101.13;;;0.65;100.00
20909;BME280;10614;53.198;6.570;2024-03-08T01:37:28;102119.47;;;0.74;100.00
20909;BME280;10614;53.198;6.570;2024-03-08T01:39:30;102156.19;;;0.94;100.00
20909;BME280;10614;53.198;6.570;2024-03-08T01:41:32;102128.19;;;0.79;100.00
20909;BME280;10614;53.198;6.570;2024-03-08T01:43:34;102153.53;;;0.93;100.00
20909;BME280;10614;53.198;6.570;2024-03-08T01:45:38;102151.81;;;0.92;100.00
20909;BME280;10614;53.198;6.570;2024-03-08T01:47:39;102142.25;;;0.89;100.00
20909;BME280;10614;53.198;6.570;2024-03-08T01:49:42;102116.03;;;0.75;100.00
20909;BME280;10614;53.198;6.570;2024-03-08T01:51:44;102134.44;;;0.88;100.00
20909;BME280;10614;53.198;6.570;2024-03-08T01:53:47;102131.84;;;0.88;100.00
20909;BME280;10614;53.198;6.570;2024-03-08T01:55:50;102132.66;;;0.85;100.00
20909;BME280;10614;53.198;6.570;2024-03-08T01:57:54;102123.91;;;0.81;100.00
20909;BME280;10614;53.198;6.570;2024-03-08T01:59:57;102125.75;;;0.86;100.00
20909;BME280;10614;53.198;6.570;2024-03-08T02:04:13;102091.56;;;0.61;100.00
20909;BME280;10614;53.198;6.570;2024-03-08T02:06:15;102123.97;;;0.83;100.00
20909;BME280;10614;53.198;6.570;2024-03-08T02:08:17;102119.56;;;0.79;100.00
20909;BME280;10614;53.198;6.570;2024-03-08T02:10:23;102123.00;;;0.79;100.00
20909;BME280;10614;53.198;6.570;2024-03-08T02:12:25;102111.81;;;0.80;100.00
20909;BME280;10614;53.198;6.570;2024-03-08T02:14:27;102115.28;;;0.81;100.00
20909;BME280;10614;53.198;6.570;2024-03-08T02:16:29;102096.03;;;0.68;100.00
20909;BME280;10614;53.198;6.570;2024-03-08T02:18:31;102104.81;;;0.76;100.00
20909;BME280;10614;53.198;6.570;2024-03-08T02:20:36;102102.09;;;0.70;100.00
20909;BME280;10614;53.198;6.570;2024-03-08T02:22:38;102108.22;;;0.74;100.00
20909;BME280;10614;53.198;6.570;2024-03-08T02:24:40;102074.06;;;0.51;100.00
20909;BME280;10614;53.198;6.570;2024-03-08T02:26:42;102115.09;;;0.72;100.00
20909;BME280;10614;53.198;6.570;2024-03-08T02:28:43;102104.69;;;0.70;100.00
20909;BME280;10614;53.198;6.570;2024-03-08T02:30:46;102110.66;;;0.66;100.00
20909;BME280;10614;53.198;6.570;2024-03-08T02:32:48;102108.03;;;0.65;100.00
20909;BME280;10614;53.198;6.570;2024-03-08T02:34:50;102103.69;;;0.63;100.00
20909;BME280;10614;53.198;6.570;2024-03-08T02:36:53;102105.38;;;0.63;100.00
20909;BME280;10614;53.198;6.570;2024-03-08T02:38:56;102111.38;;;0.60;100.00
20909;BME280;10614;53.198;6.570;2024-03-08T02:40:58;102103.59;;;0.59;100.00
20909;BME280;10614;53.198;6.570;2024-03-08T02:43:00;102103.41;;;0.51;100.00
20909;BME280;10614;53.198;6.570;2024-03-08T02:45:03;102098.34;;;0.56;100.00
20909;BME280;10614;53.198;6.570;2024-03-08T02:47:06;102098.34;;;0.56;100.00
20909;BME280;10614;53.198;6.570;2024-03-08T02:49:08;102102.66;;;0.55;100.00
20909;BME280;10614;53.198;6.570;2024-03-08T02:51:09;102100.91;;;0.54;100.00
20909;BME280;10614;53.198;6.570;2024-03-08T02:53:13;102096.53;;;0.52;100.00
20909;BME280;10614;53.198;6.570;2024-03-08T02:55:16;102098.22;;;0.51;100.00
20909;BME280;10614;53.198;6.570;2024-03-08T02:57:18;102093.03;;;0.50;100.00
20909;BME280;10614;53.198;6.570;2024-03-08T02:59:19;102087.00;;;0.49;100.00
20909;BME280;10614;53.198;6.570;2024-03-08T03:01:21;102091.28;;;0.49;100.00
20909;BME280;10614;53.198;6.570;2024-03-08T03:03:23;102088.66;;;0.47;100.00
20909;BME280;10614;53.198;6.570;2024-03-08T03:05:24;102084.31;;;0.46;100.00
20909;BME280;10614;53.198;6.570;2024-03-08T03:07:26;102080.00;;;0.45;100.00
20909;BME280;10614;53.198;6.570;2024-03-08T03:09:29;102077.34;;;0.44;100.00
20909;BME280;10614;53.198;6.570;2024-03-08T03:11:33;102082.53;;;0.44;100.00
20909;BME280;10614;53.198;6.570;2024-03-08T03:13:35;102078.22;;;0.44;100.00
20909;BME280;10614;53.198;6.570;2024-03-08T03:15:37;102081.63;;;0.41;100.00
20909;BME280;10614;53.198;6.570;2024-03-08T03:17:45;102078.16;;;0.41;100.00
20909;BME280;10614;53.198;6.570;2024-03-08T03:19:48;102079.81;;;0.37;100.00
20909;BME280;10614;53.198;6.570;2024-03-08T03:21:50;102083.28;;;0.38;100.00
20909;BME280;10614;53.198;6.570;2024-03-08T03:23:53;102075.44;;;0.35;100.00
20909;BME280;10614;53.198;6.570;2024-03-08T03:25:56;102078.91;;;0.35;100.00
20909;BME280;10614;53.198;6.570;2024-03-08T03:27:58;102067.53;;;0.29;100.00
20909;BME280;10614;53.198;6.570;2024-03-08T03:30:01;102077.97;;;0.32;100.00
20909;BME280;10614;53.198;6.570;2024-03-08T03:32:21;102076.19;;;0.29;100.00
20909;BME280;10614;53.198;6.570;2024-03-08T03:34:23;102078.81;;;0.31;100.00
20909;BME280;10614;53.198;6.570;2024-03-08T03:36:25;102066.63;;;0.27;100.00
20909;BME280;10614;53.198;6.570;2024-03-08T03:38:28;102046.47;;;0.13;100.00
20909;BME280;10614;53.198;6.570;2024-03-08T03:40:30;102067.50;;;0.27;100.00
20909;BME280;10614;53.198;6.570;2024-03-08T03:42:34;102043.84;;;0.10;100.00
20909;BME280;10614;53.198;6.570;2024-03-08T03:44:38;102058.81;;;0.24;100.00
20909;BME280;10614;53.198;6.570;2024-03-08T03:46:41;102012.41;;;-0.07;100.00
20909;BME280;10614;53.198;6.570;2024-03-08T03:48:44;102055.25;;;0.20;100.00
20909;BME280;10614;53.198;6.570;2024-03-08T03:50:46;102036.88;;;0.08;100.00
20909;BME280;10614;53.198;6.570;2024-03-08T03:52:50;102057.84;;;0.20;100.00
20909;BME280;10614;53.198;6.570;2024-03-08T03:54:52;102032.41;;;0.02;100.00
20909;BME280;10614;53.198;6.570;2024-03-08T03:56:54;102035.00;;;0.01;100.00
20909;BME280;10614;53.198;6.570;2024-03-08T03:58:57;102059.50;;;0.16;100.00
20909;BME280;10614;53.198;6.570;2024-03-08T04:00:59;102046.47;;;0.13;100.00
20909;BME280;10614;53.198;6.570;2024-03-08T04:03:01;102049.94;;;0.14;100.00
20909;BME280;10614;53.198;6.570;2024-03-08T04:05:04;102042.09;;;0.11;100.00
20909;BME280;10614;53.198;6.570;2024-03-08T04:07:06;102031.59;;;0.05;100.00
20909;BME280;10614;53.198;6.570;2024-03-08T04:09:08;102038.59;;;0.09;100.00
20909;BME280;10614;53.198;6.570;2024-03-08T04:11:11;102035.00;;;0.02;100.00
20909;BME280;10614;53.198;6.570;2024-03-08T04:13:13;102037.69;;;0.05;100.00
20909;BME280;10614;53.198;6.570;2024-03-08T04:15:17;102035.91;;;0.03;100.00
20909;BME280;10614;53.198;6.570;2024-03-08T04:17:19;102035.91;;;0.03;100.00
20909;BME280;10614;53.198;6.570;2024-03-08T04:19:21;102026.38;;;0.02;100.00
20909;BME280;10614;53.198;6.570;2024-03-08T04:21:22;102028.09;;;0.01;100.00
20909;BME280;10614;53.198;6.570;2024-03-08T04:23:24;102032.31;;;-0.03;100.00
20909;BME280;10614;53.198;6.570;2024-03-08T04:25:26;102024.47;;;-0.06;100.00
20909;BME280;10614;53.198;6.570;2024-03-08T04:27:28;102015.81;;;-0.08;100.00
20909;BME280;10614;53.198;6.570;2024-03-08T04:29:30;102026.25;;;-0.05;100.00
20909;BME280;10614;53.198;6.570;2024-03-08T04:31:34;102026.25;;;-0.03;100.00
20909;BME280;10614;53.198;6.570;2024-03-08T04:33:36;102023.63;;;-0.06;100.00
20909;BME280;10614;53.198;6.570;2024-03-08T04:35:39;102014.09;;;-0.07;100.00
20909;BME280;10614;53.198;6.570;2024-03-08T04:37:41;102021.06;;;-0.05;100.00
20909;BME280;10614;53.198;6.570;2024-03-08T04:39:43;102020.06;;;-0.11;100.00
20909;BME280;10614;53.198;6.570;2024-03-08T04:41:45;102021.78;;;-0.10;100.00
20909;BME280;10614;53.198;6.570;2024-03-08T04:43:47;102019.25;;;-0.09;100.00
20909;BME280;10614;53.198;6.570;2024-03-08T04:45:49;102020.94;;;-0.11;100.00
20909;BME280;10614;53.198;6.570;2024-03-08T04:47:52;102020.06;;;-0.11;100.00
20909;BME280;10614;53.198;6.570;2024-03-08T04:49:53;102012.25;;;-0.13;100.00
20909;BME280;10614;53.198;6.570;2024-03-08T04:51:56;102002.69;;;-0.15;100.00
20909;BME280;10614;53.198;6.570;2024-03-08T04:53:58;102007.00;;;-0.16;100.00
20909;BME280;10614;53.198;6.570;2024-03-08T04:56:01;102000.91;;;-0.18;100.00
20909;BME280;10614;53.198;6.570;2024-03-08T04:58:06;102003.50;;;-0.18;100.00
20909;BME280;10614;53.198;6.570;2024-03-08T05:00:09;101991.28;;;-0.24;100.00
20909;BME280;10614;53.198;6.570;2024-03-08T05:02:11;102001.75;;;-0.19;100.00
20909;BME280;10614;53.198;6.570;2024-03-08T05:04:15;101993.00;;;-0.24;100.00
20909;BME280;10614;53.198;6.570;2024-03-08T05:06:17;101983.41;;;-0.30;100.00
20909;BME280;10614;53.198;6.570;2024-03-08T05:08:21;101977.31;;;-0.32;100.00
20909;BME280;10614;53.198;6.570;2024-03-08T05:10:23;101996.44;;;-0.25;100.00
20909;BME280;10614;53.198;6.570;2024-03-08T05:12:24;101996.41;;;-0.27;100.00
20909;BME280;10614;53.198;6.570;2024-03-08T05:14:26;101959.66;;;-0.50;100.00
20909;BME280;10614;53.198;6.570;2024-03-08T05:16:28;101981.53;;;-0.35;100.00
20909;BME280;10614;53.198;6.570;2024-03-08T05:18:30;101989.41;;;-0.31;100.00
20909;BME280;10614;53.198;6.570;2024-03-08T05:20:34;101994.56;;;-0.32;100.00
20909;BME280;10614;53.198;6.570;2024-03-08T05:22:37;101989.38;;;-0.32;100.00
20909;BME280;10614;53.198;6.570;2024-03-08T05:24:39;101998.88;;;-0.33;100.00
20909;BME280;10614;53.198;6.570;2024-03-08T05:26:41;101950.97;;;-0.53;100.00
20909;BME280;10614;53.198;6.570;2024-03-08T05:28:42;101984.13;;;-0.35;100.00
20909;BME280;10614;53.198;6.570;2024-03-08T05:30:44;101987.56;;;-0.36;100.00
20909;BME280;10614;53.198;6.570;2024-03-08T05:32:46;101985.78;;;-0.39;100.00
20909;BME280;10614;53.198;6.570;2024-03-08T05:34:48;101969.13;;;-0.50;100.00
20909;BME280;10614;53.198;6.570;2024-03-08T05:36:50;101981.41;;;-0.40;100.00
20909;BME280;10614;53.198;6.570;2024-03-08T05:38:52;101981.41;;;-0.40;100.00
20909;BME280;10614;53.198;6.570;2024-03-08T05:40:53;101985.72;;;-0.40;100.00
20909;BME280;10614;53.198;6.570;2024-03-08T05:42:55;101986.59;;;-0.40;100.00
20909;BME280;10614;53.198;6.570;2024-03-08T05:44:56;101976.25;;;-0.40;100.00
20909;BME280;10614;53.198;6.570;2024-03-08T05:46:59;101983.13;;;-0.42;100.00
20909;BME280;10614;53.198;6.570;2024-03-08T05:49:01;101983.13;;;-0.42;100.00
20909;BME280;10614;53.198;6.570;2024-03-08T05:51:05;101981.31;;;-0.45;100.00
20909;BME280;10614;53.198;6.570;2024-03-08T05:53:08;101960.22;;;-0.63;100.00
20909;BME280;10614;53.198;6.570;2024-03-08T05:55:10;101949.81;;;-0.65;100.00
20909;BME280;10614;53.198;6.570;2024-03-08T05:57:14;101996.84;;;-0.45;100.00
20909;BME280;10614;53.198;6.570;2024-03-08T05:59:17;101989.88;;;-0.47;100.00
20909;BME280;10614;53.198;6.570;2024-03-08T06:01:19;101994.19;;;-0.48;100.00
20909;BME280;10614;53.198;6.570;2024-03-08T06:03:21;101986.31;;;-0.52;100.00
20909;BME280;10614;53.198;6.570;2024-03-08T06:05:23;101954.03;;;-0.68;100.00
20909;BME280;10614;53.198;6.570;2024-03-08T06:07:25;101978.53;;;-0.54;100.00
20909;BME280;10614;53.198;6.570;2024-03-08T06:09:28;101974.22;;;-0.53;100.00
20909;BME280;10614;53.198;6.570;2024-03-08T06:11:30;101982.09;;;-0.49;100.00
20909;BME280;10614;53.198;6.570;2024-03-08T06:13:32;101984.72;;;-0.47;100.00
20909;BME280;10614;53.198;6.570;2024-03-08T06:15:34;101959.31;;;-0.65;100.00
20909;BME280;10614;53.198;6.570;2024-03-08T06:17:36;101980.34;;;-0.50;100.00
20909;BME280;10614;53.198;6.570;2024-03-08T06:19:38;101954.09;;;-0.67;100.00
20909;BME280;10614;53.198;6.570;2024-03-08T06:21:40;101983.03;;;-0.47;100.00
20909;BME280;10614;53.198;6.570;2024-03-08T06:23:42;101986.47;;;-0.46;100.00
20909;BME280;10614;53.198;6.570;2024-03-08T06:25:44;101987.34;;;-0.46;100.00
20909;BME280;10614;53.198;6.570;2024-03-08T06:27:47;101979.59;;;-0.46;100.00
20909;BME280;10614;53.198;6.570;2024-03-08T06:29:48;101986.50;;;-0.45;100.00
20909;BME280;10614;53.198;6.570;2024-03-08T06:31:49;101978.66;;;-0.48;100.00
20909;BME280;10614;53.198;6.570;2024-03-08T06:33:51;101952.47;;;-0.63;100.00
20909;BME280;10614;53.198;6.570;2024-03-08T06:35:55;101983.13;;;-0.42;100.00
20909;BME280;10614;53.198;6.570;2024-03-08T06:37:57;101935.06;;;-0.69;100.00
20909;BME280;10614;53.198;6.570;2024-03-08T06:39:59;101978.88;;;-0.38;100.00
20909;BME280;10614;53.198;6.570;2024-03-08T06:42:03;101958.72;;;-0.53;100.00
20909;BME280;10614;53.198;6.570;2024-03-08T06:44:05;101946.53;;;-0.57;100.00
20909;BME280;10614;53.198;6.570;2024-03-08T06:46:08;101981.50;;;-0.37;100.00
20909;BME280;10614;53.198;6.570;2024-03-08T06:48:10;101977.22;;;-0.36;100.00
20909;BME280;10614;53.198;6.570;2024-03-08T06:50:12;101977.25;;;-0.35;100.00
20909;BME280;10614;53.198;6.570;2024-03-08T06:52:15;101975.59;;;-0.33;100.00
20909;BME280;10614;53.198;6.570;2024-03-08T06:54:17;101970.41;;;-0.31;100.00
20909;BME280;10614;53.198;6.570;2024-03-08T06:56:20;101973.91;;;-0.29;100.00
20909;BME280;10614;53.198;6.570;2024-03-08T06:58:25;101976.50;;;-0.29;100.00
20909;BME280;10614;53.198;6.570;2024-03-08T07:00:36;101958.25;;;-0.35;100.00
20909;BME280;10614;53.198;6.570;2024-03-08T07:02:38;101973.16;;;-0.24;100.00
20909;BME280;10614;53.198;6.570;2024-03-08T07:04:41;101939.16;;;-0.40;100.00
20909;BME280;10614;53.198;6.570;2024-03-08T07:06:42;101978.44;;;-0.19;100.00
20909;BME280;10614;53.198;6.570;2024-03-08T07:08:44;101978.50;;;-0.17;100.00
20909;BME280;10614;53.198;6.570;2024-03-08T07:10:47;101971.69;;;-0.14;100.00
20909;BME280;10614;53.198;6.570;2024-03-08T07:12:49;101971.75;;;-0.11;100.00
20909;BME280;10614;53.198;6.570;2024-03-08T07:14:53;101973.53;;;-0.08;100.00
20909;BME280;10614;53.198;6.570;2024-03-08T07:16:55;101972.72;;;-0.06;100.00
20909;BME280;10614;53.198;6.570;2024-03-08T07:18:59;101950.91;;;-0.17;100.00
20909;BME280;10614;53.198;6.570;2024-03-08T07:21:01;101974.59;;;0.00;100.00
20909;BME280;10614;53.198;6.570;2024-03-08T07:23:06;101919.63;;;-0.28;100.00
20909;BME280;10614;53.198;6.570;2024-03-08T07:25:09;101962.31;;;-0.09;100.00
20909;BME280;10614;53.198;6.570;2024-03-08T07:27:21;101930.28;;;-0.14;100.00
20909;BME280;10614;53.198;6.570;2024-03-08T07:29:22;101971.38;;;0.12;100.00
20909;BME280;10614;53.198;6.570;2024-03-08T07:31:26;101970.56;;;0.16;100.00
20909;BME280;10614;53.198;6.570;2024-03-08T07:33:35;101960.22;;;0.14;100.00
20909;BME280;10614;53.198;6.570;2024-03-08T07:35:38;101972.44;;;0.23;100.00
20909;BME280;10614;53.198;6.570;2024-03-08T07:37:40;101962.09;;;0.23;100.00
20909;BME280;10614;53.198;6.570;2024-03-08T07:39:42;101967.41;;;0.29;100.00
20909;BME280;10614;53.198;6.570;2024-03-08T07:41:46;101962.28;;;0.32;100.00
20909;BME280;10614;53.198;6.570;2024-03-08T07:43:47;101957.97;;;0.31;100.00
20909;BME280;10614;53.198;6.570;2024-03-08T07:45:49;101958.97;;;0.39;100.00
20909;BME280;10614;53.198;6.570;2024-03-08T07:47:54;101930.13;;;0.21;100.00
20909;BME280;10614;53.198;6.570;2024-03-08T07:49:57;101948.69;;;0.43;100.00
20909;BME280;10614;53.198;6.570;2024-03-08T07:52:00;101925.13;;;0.30;100.00
20909;BME280;10614;53.198;6.570;2024-03-08T07:54:02;101957.56;;;0.55;100.00
20909;BME280;10614;53.198;6.570;2024-03-08T07:56:05;101900.94;;;0.28;100.00
20909;BME280;10614;53.198;6.570;2024-03-08T07:58:07;101946.44;;;0.61;100.00
20909;BME280;10614;53.198;6.570;2024-03-08T08:00:12;101951.72;;;0.66;100.00
20909;BME280;10614;53.198;6.570;2024-03-08T08:02:18;101943.19;;;0.71;100.00
20909;BME280;10614;53.198;6.570;2024-03-08T08:04:21;101937.38;;;0.84;100.00
20909;BME280;10614;53.198;6.570;2024-03-08T08:06:25;101937.88;;;1.15;100.00
20909;BME280;10614;53.198;6.570;2024-03-08T08:08:27;101933.25;;;1.52;100.00
20909;BME280;10614;53.198;6.570;2024-03-08T08:10:30;101929.34;;;1.80;100.00
20909;BME280;10614;53.198;6.570;2024-03-08T08:12:33;101933.97;;;2.04;100.00
20909;BME280;10614;53.198;6.570;2024-03-08T08:14:34;101934.09;;;2.14;100.00
20909;BME280;10614;53.198;6.570;2024-03-08T08:16:37;101924.44;;;2.03;100.00
20909;BME280;10614;53.198;6.570;2024-03-08T08:18:41;101920.03;;;1.95;100.00
20909;BME280;10614;53.198;6.570;2024-03-08T08:20:46;101925.06;;;1.84;100.00
20909;BME280;10614;53.198;6.570;2024-03-08T08:22:47;101928.41;;;1.75;100.00
20909;BME280;10614;53.198;6.570;2024-03-08T08:24:49;101903.97;;;1.59;100.00
20909;BME280;10614;53.198;6.570;2024-03-08T08:26:51;101921.25;;;1.57;100.00
20909;BME280;10614;53.198;6.570;2024-03-08T08:28:53;101908.16;;;1.51;100.00
20909;BME280;10614;53.198;6.570;2024-03-08T08:30:55;101908.13;;;1.50;100.00
20909;BME280;10614;53.198;6.570;2024-03-08T08:32:57;101906.38;;;1.47;100.00
20909;BME280;10614;53.198;6.570;2024-03-08T08:35:01;101908.13;;;1.48;100.00
20909;BME280;10614;53.198;6.570;2024-03-08T08:37:04;101900.34;;;1.48;100.00
20909;BME280;10614;53.198;6.570;2024-03-08T08:39:06;101896.00;;;1.47;100.00
20909;BME280;10614;53.198;6.570;2024-03-08T08:41:13;101899.47;;;1.49;100.00
20909;BME280;10614;53.198;6.570;2024-03-08T08:43:17;101885.69;;;1.50;100.00
20909;BME280;10614;53.198;6.570;2024-03-08T08:45:21;101858.63;;;1.34;100.00
20909;BME280;10614;53.198;6.570;2024-03-08T08:47:23;101880.53;;;1.53;100.00
20909;BME280;10614;53.198;6.570;2024-03-08T08:49:24;101879.69;;;1.56;100.00
20909;BME280;10614;53.198;6.570;2024-03-08T08:51:26;101874.53;;;1.59;100.00
20909;BME280;10614;53.198;6.570;2024-03-08T08:53:29;101851.88;;;1.45;100.00
20909;BME280;10614;53.198;6.570;2024-03-08T08:55:32;101873.72;;;1.63;100.00
20909;BME280;10614;53.198;6.570;2024-03-08T08:57:36;101867.69;;;1.65;100.00
20909;BME280;10614;53.198;6.570;2024-03-08T08:59:38;101865.13;;;1.68;100.00
20909;BME280;10614;53.198;6.570;2024-03-08T09:01:40;101845.22;;;1.64;100.00
20909;BME280;10614;53.198;6.570;2024-03-08T09:03:42;101834.78;;;1.60;100.00
20909;BME280;10614;53.198;6.570;2024-03-08T09:05:46;101861.81;;;1.79;100.00
20909;BME280;10614;53.198;6.570;2024-03-08T09:07:48;101860.13;;;1.82;100.00
20909;BME280;10614;53.198;6.570;2024-03-08T09:09:51;101859.31;;;1.86;100.00
20909;BME280;10614;53.198;6.570;2024-03-08T09:11:57;101863.72;;;1.92;100.00
20909;BME280;10614;53.198;6.570;2024-03-08T09:13:59;101803.69;;;1.64;100.00
20909;BME280;10614;53.198;6.570;2024-03-08T09:16:02;101855.13;;;1.98;100.00
20909;BME280;10614;53.198;6.570;2024-03-08T09:18:05;101856.03;;;2.03;100.00
20909;BME280;10614;53.198;6.570;2024-03-08T09:20:10;101843.97;;;2.06;100.00
20909;BME280;10614;53.198;6.570;2024-03-08T09:22:11;101849.19;;;2.09;100.00
20909;BME280;10614;53.198;6.570;2024-03-08T09:24:14;101850.13;;;2.15;100.00
20909;BME280;10614;53.198;6.570;2024-03-08T09:26:18;101834.56;;;2.18;100.00
20909;BME280;10614;53.198;6.570;2024-03-08T09:28:20;101837.22;;;2.24;100.00
20909;BME280;10614;53.198;6.570;2024-03-08T09:30:29;101834.66;;;2.27;100.00
20909;BME280;10614;53.198;6.570;2024-03-08T09:32:32;101828.66;;;2.29;100.00
20909;BME280;10614;53.198;6.570;2024-03-08T09:34:34;101831.25;;;2.34;100.00
20909;BME280;10614;53.198;6.570;2024-03-08T09:36:35;101826.97;;;2.38;100.00
20909;BME280;10614;53.198;6.570;2024-03-08T09:38:37;101818.34;;;2.40;100.00
20909;BME280;10614;53.198;6.570;2024-03-08T09:40:41;101815.75;;;2.43;100.00
20909;BME280;10614;53.198;6.570;2024-03-08T09:42:44;101823.59;;;2.46;100.00
20909;BME280;10614;53.198;6.570;2024-03-08T09:44:49;101812.34;;;2.50;100.00
20909;BME280;10614;53.198;6.570;2024-03-08T09:46:52;101807.19;;;2.53;100.00
20909;BME280;10614;53.198;6.570;2024-03-08T09:48:54;101811.53;;;2.54;100.00
20909;BME280;10614;53.198;6.570;2024-03-08T09:50:56;101808.94;;;2.54;100.00
20909;BME280;10614;53.198;6.570;2024-03-08T09:53:04;101803.81;;;2.62;100.00
20909;BME280;10614;53.198;6.570;2024-03-08T09:55:10;101795.16;;;2.66;100.00
20909;BME280;10614;53.198;6.570;2024-03-08T09:57:12;101792.66;;;2.74;100.00
20909;BME280;10614;53.198;6.570;2024-03-08T09:59:17;101791.78;;;2.77;100.00
20909;BME280;10614;53.198;6.570;2024-03-08T10:01:42;101788.34;;;2.79;100.00
20909;BME280;10614;53.198;6.570;2024-03-08T10:03:47;101774.47;;;2.80;100.00
20909;BME280;10614;53.198;6.570;2024-03-08T10:05:50;101775.38;;;2.87;100.00
20909;BME280;10614;53.198;6.570;2024-03-08T10:07:52;101771.09;;;2.90;100.00
20909;BME280;10614;53.198;6.570;2024-03-08T10:09:54;101778.91;;;2.96;100.00
20909;BME280;10614;53.198;6.570;2024-03-08T10:11:56;101776.31;;;2.96;100.00
20909;BME280;10614;53.198;6.570;2024-03-08T10:13:59;101768.50;;;3.00;100.00
20909;BME280;10614;53.198;6.570;2024-03-08T10:16:04;101773.78;;;3.06;100.00
20909;BME280;10614;53.198;6.570;2024-03-08T10:18:06;101766.84;;;3.11;100.00
20909;BME280;10614;53.198;6.570;2024-03-08T10:20:13;101772.09;;;3.15;100.00
20909;BME280;10614;53.198;6.570;2024-03-08T10:22:16;101762.59;;;3.19;100.00
20909;BME280;10614;53.198;6.570;2024-03-08T10:24:17;101760.84;;;3.21;100.00
20909;BME280;10614;53.198;6.570;2024-03-08T10:26:19;101754.75;;;3.21;100.00
20909;BME280;10614;53.198;6.570;2024-03-08T10:28:22;101735.66;;;3.12;100.00
20909;BME280;10614;53.198;6.570;2024-03-08T10:30:25;101747.91;;;3.33;100.00
20909;BME280;10614;53.198;6.570;2024-03-08T10:32:27;101749.66;;;3.39;100.00
20909;BME280;10614;53.198;6.570;2024-03-08T10:34:29;101751.41;;;3.43;100.00
20909;BME280;10614;53.198;6.570;2024-03-08T10:36:31;101730.56;;;3.38;100.00
20909;BME280;10614;53.198;6.570;2024-03-08T10:38:36;101727.97;;;3.40;100.00
20909;BME280;10614;53.198;6.570;2024-03-08T10:40:39;101727.16;;;3.55;100.00
20909;BME280;10614;53.198;6.570;2024-03-08T10:42:50;101732.41;;;3.66;100.00